Time;durP1;ratioP1;P1;durP2;ratioP2;P2;SDS_P1;SDS_P2;PMS_P1;PMS_P2;Temp;Humidity;BMP_temperature;BMP_pressure;BME280_temperature;BME280_humidity;BME280_pressure;Samples;Min_cycle;Max_cycle;Signal;HPM_P1;HPM_P2
2022/05/03 00:01:56;;;;;;;8.32;4.43;;;12.50;1.00;;;;;;6195494;23;20070;-92
2022/05/03 00:04:37;;;;;;;6.22;4.07;;;12.50;1.00;;;;;;6195199;23;20022;-92
2022/05/03 00:07:08;;;;;;;6.10;4.10;;;12.40;1.00;;;;;;6194953;23;20020;-92
2022/05/03 00:09:44;;;;;;;6.80;3.80;;;12.40;1.00;;;;;;6195308;23;20047;-92
2022/05/03 00:12:19;;;;;;;6.10;4.05;;;12.30;1.00;;;;;;6220148;23;20026;-92
2022/05/03 00:14:54;;;;;;;6.35;4.38;;;12.30;1.00;;;;;;6219440;23;20031;-93
2022/05/03 00:17:22;;;;;;;6.55;4.25;;;12.30;1.00;;;;;;6195548;23;20462;-92
2022/05/03 00:19:50;;;;;;;9.80;4.00;;;12.30;1.00;;;;;;6195491;23;20028;-93
2022/05/03 00:22:19;;;;;;;5.10;4.03;;;12.20;1.00;;;;;;6219726;23;20020;-92
2022/05/03 00:24:47;;;;;;;7.03;3.97;;;12.20;1.00;;;;;;6194247;23;20016;-92
2022/05/03 00:27:15;;;;;;;6.68;3.80;;;12.20;1.00;;;;;;6247138;23;20016;-92
2022/05/03 00:29:43;;;;;;;8.15;4.15;;;12.20;1.00;;;;;;6224508;23;20027;-92
2022/05/03 00:32:12;;;;;;;5.72;4.10;;;12.20;1.00;;;;;;6204361;23;20020;-92
2022/05/03 00:34:39;;;;;;;8.13;4.60;;;12.10;1.00;;;;;;6202851;23;20031;-92
2022/05/03 00:37:06;;;;;;;8.40;4.30;;;12.10;1.00;;;;;;6200986;23;20035;-92
2022/05/03 00:39:33;;;;;;;6.47;4.05;;;12.10;1.00;;;;;;6209869;23;20074;-92
2022/05/03 00:42:14;;;;;;;8.40;4.07;;;12.10;1.00;;;;;;6228576;23;20070;-92
2022/05/03 00:45:27;;;;;;;7.22;4.63;;;12.10;1.00;;;;;;6194557;23;20031;-92
2022/05/03 00:47:56;;;;;;;7.18;4.88;;;12.00;1.00;;;;;;6071254;23;20030;-92
2022/05/03 00:50:42;;;;;;;6.78;4.90;;;12.00;1.00;;;;;;6071750;23;20030;-93
2022/05/03 00:53:45;;;;;;;8.05;4.55;;;12.00;1.00;;;;;;6141238;23;20107;-92
2022/05/03 00:56:48;;;;;;;7.65;5.00;;;11.90;1.00;;;;;;6202984;23;20016;-92
2022/05/03 00:59:46;;;;;;;8.75;5.47;;;11.90;1.00;;;;;;6198076;23;20023;-92
2022/05/03 01:02:22;;;;;;;5.63;4.18;;;11.90;1.00;;;;;;6196696;23;20012;-91
2022/05/03 01:05:10;;;;;;;8.15;4.40;;;11.90;1.00;;;;;;6248459;22;20012;-92
2022/05/03 01:07:48;;;;;;;7.75;5.40;;;11.90;1.00;;;;;;6222111;23;20020;-92
2022/05/03 01:10:48;;;;;;;6.70;4.47;;;11.80;1.00;;;;;;6221335;23;20447;-92
2022/05/03 01:13:33;;;;;;;7.55;4.68;;;11.80;1.00;;;;;;6147207;23;20020;-92
2022/05/03 01:16:03;;;;;;;7.10;5.13;;;11.80;1.00;;;;;;6196151;23;20020;-92
2022/05/03 01:18:41;;;;;;;9.90;5.80;;;11.80;1.00;;;;;;6196816;23;20020;-92
2022/05/03 01:21:18;;;;;;;6.93;4.55;;;11.80;1.00;;;;;;6196344;23;20055;-92
2022/05/03 01:24:03;;;;;;;9.60;5.35;;;11.80;1.00;;;;;;6221221;22;20082;-92
2022/05/03 01:26:43;;;;;;;8.27;5.57;;;11.80;1.00;;;;;;6248191;23;20016;-92
2022/05/03 01:29:13;;;;;;;8.52;5.18;;;11.70;1.00;;;;;;6220822;23;20020;-92
2022/05/03 01:31:40;;;;;;;7.28;4.90;;;11.70;1.00;;;;;;6220895;23;20463;-92
2022/05/03 01:34:12;;;;;;;7.85;5.07;;;11.70;1.00;;;;;;6196119;23;20020;-92
2022/05/03 01:37:00;;;;;;;8.77;5.63;;;11.70;1.00;;;;;;6221107;23;20456;-92
2022/05/03 01:39:58;;;;;;;8.07;5.40;;;11.70;1.00;;;;;;6221616;23;20027;-93
2022/05/03 01:42:56;;;;;;;9.70;5.45;;;11.70;1.00;;;;;;6219845;23;20095;-92
2022/05/03 01:45:31;;;;;;;8.40;4.93;;;11.70;1.00;;;;;;6195794;23;20028;-92
2022/05/03 01:47:59;;;;;;;8.60;4.70;;;11.70;1.00;;;;;;6196086;23;20021;-92
2022/05/03 01:51:03;;;;;;;8.60;4.95;;;11.70;1.00;;;;;;6221303;23;20143;-92
2022/05/03 01:53:50;;;;;;;;;;;11.70;1.00;;;;;;6196970;23;20066;-92
2022/05/03 01:56:36;;;;;;;6.72;4.28;;;11.70;1.00;;;;;;6221378;23;19915;-93
2022/05/03 01:59:18;;;;;;;8.98;4.85;;;11.70;1.00;;;;;;6196361;23;20020;-92
2022/05/03 02:02:08;;;;;;;7.20;4.90;;;11.70;1.00;;;;;;6196264;23;20055;-92
2022/05/03 02:05:05;;;;;;;8.45;5.43;;;11.70;1.00;;;;;;6196130;23;20020;-93
2022/05/03 02:07:53;;;;;;;9.18;5.40;;;11.70;1.00;;;;;;6196839;23;20175;-91
2022/05/03 02:10:36;;;;;;;9.35;5.38;;;11.70;1.00;;;;;;6196362;23;20489;-93
2022/05/03 02:13:22;;;;;;;8.85;5.78;;;11.70;1.00;;;;;;6221136;23;20062;-92
2022/05/03 02:15:52;;;;;;;11.45;6.47;;;11.70;1.00;;;;;;6195911;23;20020;-92
2022/05/03 02:18:37;;;;;;;17.30;8.70;;;11.70;1.00;;;;;;6220505;23;20027;-92
2022/05/03 02:21:17;;;;;;;19.40;8.73;;;11.70;1.00;;;;;;6220937;23;20498;-92
2022/05/03 02:24:05;;;;;;;12.10;7.40;;;11.70;1.00;;;;;;6172384;22;20352;-92
2022/05/03 02:26:43;;;;;;;11.40;7.10;;;11.70;1.00;;;;;;6247963;23;20043;-92
2022/05/03 02:29:25;;;;;;;12.48;7.22;;;11.70;1.00;;;;;;6247366;23;20099;-92
2022/05/03 02:32:01;;;;;;;15.75;9.75;;;11.70;1.00;;;;;;6221006;23;20078;-92
2022/05/03 02:34:33;;;;;;;13.40;7.82;;;11.60;41.90;;;;;;6195613;23;20070;-92
2022/05/03 02:37:16;;;;;;;24.47;10.30;;;11.60;18.40;;;;;;6195574;23;20097;-92
2022/05/03 02:39:58;;;;;;;20.95;10.48;;;11.60;19.40;;;;;;6220626;23;20054;-92
2022/05/03 02:42:26;;;;;;;13.95;7.60;;;11.60;17.80;;;;;;6220543;23;20067;-92
2022/05/03 02:44:56;;;;;;;19.30;10.82;;;11.70;13.20;;;;;;6195296;23;20103;-92
2022/05/03 02:47:43;;;;;;;16.63;9.32;;;11.70;11.70;;;;;;6220670;23;20046;-92
2022/05/03 02:50:10;;;;;;;20.95;10.55;;;11.70;9.90;;;;;;6195694;23;20050;-92
2022/05/03 02:52:45;;;;;;;20.70;9.07;;;11.70;15.30;;;;;;6220882;23;20347;-92
2022/05/03 02:55:12;;;;;;;19.08;10.27;;;11.60;14.10;;;;;;6220915;23;20019;-92
2022/05/03 02:58:05;;;;;;;26.92;14.32;;;11.70;15.80;;;;;;6220635;23;20423;-92
2022/05/03 03:03:44;;;;;;;20.50;11.98;;;11.70;13.70;;;;;;6247433;23;20020;-92
2022/05/03 03:06:23;;;;;;;23.52;13.13;;;11.60;31.20;;;;;;6220316;23;20020;-92
2022/05/03 03:08:54;;;;;;;34.63;17.15;;;11.60;23.20;;;;;;6220515;23;20023;-92
2022/05/03 03:11:48;;;;;;;27.48;13.90;;;11.60;54.10;;;;;;6220428;23;20196;-92
2022/05/03 03:14:42;;;;;;;33.10;16.13;;;11.50;46.30;;;;;;6219969;23;20016;-91
2022/05/03 03:17:10;;;;;;;22.63;11.93;;;11.50;99.90;;;;;;6195356;23;20012;-92
2022/05/03 03:20:03;;;;;;;29.25;14.38;;;11.40;99.90;;;;;;6195315;23;20040;-92
2022/05/03 03:22:36;;;;;;;27.25;13.10;;;11.50;99.90;;;;;;6220732;23;20504;-92
2022/05/03 03:25:06;;;;;;;23.40;12.68;;;11.40;99.90;;;;;;6219983;23;20023;-92
2022/05/03 03:27:34;;;;;;;19.70;11.27;;;11.40;99.90;;;;;;6220579;23;20012;-92
2022/05/03 03:30:04;;;;;;;19.90;12.00;;;11.40;99.90;;;;;;6224323;23;20023;-91
2022/05/03 03:32:32;;;;;;;24.55;11.82;;;11.50;99.90;;;;;;6209762;23;20019;-94
2022/05/03 03:34:59;;;;;;;26.15;13.35;;;11.50;99.90;;;;;;6221476;23;20462;-92
2022/05/03 03:37:34;;;;;;;21.00;11.70;;;11.50;99.90;;;;;;6202620;23;20032;-92
2022/05/03 03:40:03;;;;;;;17.98;11.30;;;11.60;99.90;;;;;;6234053;23;20027;-92
2022/05/03 03:42:30;;;;;;;22.40;12.40;;;11.50;99.90;;;;;;6220655;23;20400;-91
2022/05/03 03:45:07;;;;;;;23.77;12.68;;;11.50;99.90;;;;;;6220479;23;20020;-92
2022/05/03 03:47:42;;;;;;;22.50;11.38;;;11.50;99.90;;;;;;6220304;23;20020;-92
2022/05/03 03:50:09;;;;;;;17.65;10.20;;;11.50;99.90;;;;;;6219990;23;20022;-92
2022/05/03 03:52:41;;;;;;;33.33;17.23;;;11.50;99.90;;;;;;6219933;23;20078;-92
2022/05/03 03:55:09;;;;;;;24.90;13.70;;;11.50;99.90;;;;;;6219585;23;20020;-92
2022/05/03 03:57:37;;;;;;;24.98;12.15;;;11.40;99.90;;;;;;6219986;23;20099;-92
2022/05/03 04:00:07;;;;;;;27.75;12.73;;;11.40;99.90;;;;;;6220483;23;20074;-92
2022/05/03 04:02:41;;;;;;;25.05;13.50;;;11.40;99.90;;;;;;6196868;23;20020;-92
2022/05/03 04:05:22;;;;;;;24.63;12.43;;;11.40;99.90;;;;;;6195878;23;20048;-92
2022/05/03 04:07:51;;;;;;;27.75;13.60;;;11.40;99.90;;;;;;6246165;23;20012;-92
2022/05/03 04:10:18;;;;;;;19.80;10.80;;;11.50;99.90;;;;;;6220885;23;20070;-92
2022/05/03 04:12:46;;;;;;;21.10;10.57;;;11.40;99.90;;;;;;6220304;23;20043;-91
2022/05/03 04:15:19;;;;;;;16.42;9.00;;;11.50;99.90;;;;;;6219965;23;20047;-93
2022/05/03 04:22:30;;;;;;;22.45;10.77;;;11.50;99.90;;;;;;6248511;23;20006;-92
2022/05/03 04:24:59;;;;;;;23.67;11.57;;;11.50;99.90;;;;;;6220272;23;20031;-91
2022/05/03 04:27:27;;;;;;;27.40;13.45;;;11.50;99.90;;;;;;6246299;23;20031;-91
2022/05/03 04:29:56;;;;;;;18.67;10.35;;;11.40;99.90;;;;;;6245979;23;20394;-90
2022/05/03 04:32:23;;;;;;;34.17;15.07;;;11.50;99.90;;;;;;6245849;23;20020;-90
2022/05/03 04:34:50;;;;;;;17.15;9.70;;;11.50;99.90;;;;;;6240234;22;20016;-91
2022/05/03 04:37:17;;;;;;;30.85;14.23;;;11.50;99.90;;;;;;6219793;23;20026;-90
2022/05/03 04:39:44;;;;;;;14.52;8.18;;;11.50;99.90;;;;;;6219282;23;20085;-91
2022/05/03 04:42:12;;;;;;;19.33;10.82;;;11.50;99.90;;;;;;6194352;23;20024;-91
2022/05/03 04:44:39;;;;;;;14.80;8.43;;;11.50;99.90;;;;;;6219078;23;20074;-91
2022/05/03 04:47:06;;;;;;;18.27;9.90;;;11.60;99.90;;;;;;6218952;23;20482;-91
2022/05/03 04:49:34;;;;;;;20.00;10.90;;;11.50;99.90;;;;;;6219124;23;20059;-90
2022/05/03 04:53:01;;;;;;;22.67;11.32;;;11.60;99.90;;;;;;6229157;23;20031;-92
2022/05/03 04:55:28;;;;;;;32.08;14.20;;;11.50;99.90;;;;;;6218882;23;20026;-92
2022/05/03 04:57:56;;;;;;;22.35;12.90;;;11.50;99.90;;;;;;6218481;23;20027;-91
2022/05/03 05:00:32;;;;;;;27.00;13.88;;;11.50;99.90;;;;;;6221823;23;20039;-91
2022/05/03 05:02:59;;;;;;;36.30;18.20;;;11.50;99.90;;;;;;6218845;23;20027;-92
2022/05/03 05:05:29;;;;;;;22.23;10.52;;;11.50;99.90;;;;;;6196236;23;20012;-91
2022/05/03 05:08:01;;;;;;;20.23;10.95;;;11.40;99.90;;;;;;6194158;23;20020;-91
2022/05/03 05:10:31;;;;;;;21.45;11.13;;;11.40;99.90;;;;;;6194810;23;20043;-91
2022/05/03 05:13:00;;;;;;;23.02;12.73;;;11.40;99.90;;;;;;6218872;23;20024;-91
2022/05/03 05:15:28;;;;;;;30.83;15.82;;;11.50;99.90;;;;;;6218861;23;20020;-90
2022/05/03 05:17:57;;;;;;;33.88;17.83;;;11.50;99.90;;;;;;6219128;23;20432;-90
2022/05/03 05:20:25;;;;;;;30.77;15.30;;;11.50;99.90;;;;;;6219241;23;20088;-89
2022/05/03 05:22:52;;;;;;;28.35;12.75;;;11.40;99.90;;;;;;6218957;23;20020;-91
2022/05/03 05:25:39;;;;;;;21.98;12.25;;;11.40;99.90;;;;;;6218945;23;20018;-90
2022/05/03 05:28:06;;;;;;;31.25;16.02;;;11.40;99.90;;;;;;6219281;23;20348;-90
2022/05/03 05:30:33;;;;;;;24.83;13.07;;;11.40;99.90;;;;;;6219081;23;20019;-90
2022/05/03 05:33:00;;;;;;;28.98;15.80;;;11.40;99.90;;;;;;6218623;23;20722;-89
2022/05/03 05:35:27;;;;;;;34.88;16.50;;;11.40;99.90;;;;;;6193653;23;20020;-90
2022/05/03 05:37:54;;;;;;;36.00;16.67;;;11.40;99.90;;;;;;6219431;23;20030;-90
2022/05/03 05:40:21;;;;;;;30.15;13.13;;;11.30;99.90;;;;;;6220470;23;20391;-90
2022/05/03 05:42:51;;;;;;;28.75;12.77;;;11.20;99.90;;;;;;6220490;23;20111;-90
2022/05/03 05:45:19;;;;;;;31.60;12.95;;;11.20;99.90;;;;;;6245742;23;20070;-89
2022/05/03 05:47:45;;;;;;;24.05;12.60;;;11.10;99.90;;;;;;6195894;23;20329;-90
2022/05/03 05:50:13;;;;;;;22.75;11.48;;;11.10;99.90;;;;;;6220657;23;20131;-89
2022/05/03 05:55:25;;;;;;;21.77;10.73;;;11.00;99.90;;;;;;6220772;23;20024;-89
2022/05/03 05:57:52;;;;;;;19.83;8.85;;;10.90;99.90;;;;;;6220420;23;20820;-89
2022/05/03 06:00:19;;;;;;;17.25;9.15;;;10.80;99.90;;;;;;6196303;23;20049;-89
2022/05/03 06:02:47;;;;;;;16.33;7.72;;;10.80;99.90;;;;;;6195514;23;20012;-90
2022/05/03 06:05:14;;;;;;;13.50;8.05;;;10.80;99.90;;;;;;6220666;23;20043;-90
2022/05/03 06:07:40;;;;;;;11.35;8.05;;;10.90;99.90;;;;;;6220711;23;20019;-89
2022/05/03 06:10:08;;;;;;;11.27;7.40;;;10.90;99.90;;;;;;6220937;23;20024;-89
2022/05/03 06:12:35;;;;;;;8.65;6.00;;;10.80;99.90;;;;;;6195603;23;20020;-89
2022/05/03 06:15:02;;;;;;;12.32;7.10;;;10.70;99.90;;;;;;6247347;22;20051;-88
2022/05/03 06:17:29;;;;;;;13.27;6.10;;;10.70;99.90;;;;;;6247522;23;20020;-89
2022/05/03 06:19:57;;;;;;;11.50;6.43;;;10.70;99.90;;;;;;6220617;23;20420;-91
2022/05/03 06:22:23;;;;;;;13.55;6.07;;;10.60;99.90;;;;;;6170920;23;20028;-89
2022/05/03 06:24:51;;;;;;;9.55;5.82;;;10.70;99.90;;;;;;6195823;23;20028;-89
2022/05/03 06:27:18;;;;;;;6.65;5.13;;;10.80;99.90;;;;;;6247632;23;20411;-88
2022/05/03 06:29:45;;;;;;;10.18;5.80;;;10.80;99.90;;;;;;6196372;23;20043;-88
2022/05/03 06:32:12;;;;;;;8.65;4.82;;;10.80;99.90;;;;;;6221790;23;20017;-88
2022/05/03 06:34:39;;;;;;;7.95;4.72;;;10.70;99.90;;;;;;6220915;23;20016;-89
2022/05/03 06:37:06;;;;;;;7.68;4.88;;;10.60;99.90;;;;;;6196287;23;20044;-89
2022/05/03 06:39:37;;;;;;;6.15;4.82;;;10.60;99.90;;;;;;6195733;23;20024;-89
2022/05/03 06:42:05;;;;;;;7.40;4.88;;;10.60;99.90;;;;;;6247571;23;20044;-90
2022/05/03 06:44:33;;;;;;;7.10;4.78;;;10.60;99.90;;;;;;6219924;23;20115;-90
2022/05/03 06:47:00;;;;;;;9.60;5.13;;;10.70;99.90;;;;;;6220473;23;20099;-90
2022/05/03 06:49:27;;;;;;;9.15;5.20;;;10.60;99.90;;;;;;6220959;23;20067;-89
2022/05/03 06:51:55;;;;;;;6.72;4.63;;;10.50;99.90;;;;;;6247328;23;20378;-89
2022/05/03 06:54:21;;;;;;;7.43;4.88;;;10.60;99.90;;;;;;6246979;22;20352;-88
2022/05/03 06:56:48;;;;;;;8.40;5.13;;;10.70;99.90;;;;;;6195211;23;20020;-89
2022/05/03 06:59:15;;;;;;;9.85;5.97;;;10.70;99.90;;;;;;6246987;23;20013;-89
2022/05/03 07:01:42;;;;;;;9.50;5.03;;;10.80;99.90;;;;;;6247068;23;20449;-91
2022/05/03 07:04:11;;;;;;;7.68;4.40;;;10.80;99.90;;;;;;6195228;23;20020;-89
2022/05/03 07:06:38;;;;;;;7.78;4.90;;;10.70;99.90;;;;;;6220107;23;20432;-90
2022/05/03 07:09:05;;;;;;;8.63;4.97;;;10.80;99.90;;;;;;6219769;23;20020;-90
2022/05/03 07:11:32;;;;;;;6.50;4.72;;;10.70;99.90;;;;;;6194961;23;20020;-91
2022/05/03 07:13:59;;;;;;;8.02;5.57;;;10.80;99.90;;;;;;6246645;22;20020;-90
2022/05/03 07:16:26;;;;;;;9.98;5.72;;;10.90;99.90;;;;;;6220253;23;20422;-91
2022/05/03 07:24:24;;;;;;;7.13;4.57;;;10.90;99.90;;;;;;6219415;23;20077;-90
2022/05/03 07:26:51;;;;;;;9.10;4.18;;;10.90;99.90;;;;;;6194971;23;20024;-90
2022/05/03 07:29:18;;;;;;;15.35;4.95;;;10.90;99.90;;;;;;6220379;23;20410;-91
2022/05/03 07:31:45;;;;;;;6.95;3.45;;;10.90;99.90;;;;;;6195064;23;20403;-90
2022/05/03 07:34:12;;;;;;;7.82;4.00;;;10.80;99.90;;;;;;6219323;23;20020;-90
2022/05/03 07:36:41;;;;;;;8.45;4.18;;;10.80;99.90;;;;;;6246589;23;20026;-91
2022/05/03 07:39:10;;;;;;;7.30;3.53;;;10.80;99.90;;;;;;6195432;23;20024;-91
2022/05/03 07:41:37;;;;;;;14.35;3.90;;;10.90;99.90;;;;;;6220091;23;20043;-91
2022/05/03 07:44:04;;;;;;;9.55;3.53;;;10.90;99.90;;;;;;6194858;23;20360;-91
2022/05/03 07:46:31;;;;;;;7.25;3.75;;;10.90;99.90;;;;;;6220889;23;20012;-90
2022/05/03 07:48:59;;;;;;;15.18;3.30;;;10.70;99.90;;;;;;6195032;23;20042;-91
2022/05/03 07:51:25;;;;;;;7.95;2.95;;;10.80;99.90;;;;;;6196363;23;20080;-90
2022/05/03 07:53:52;;;;;;;11.38;4.05;;;10.80;99.90;;;;;;6196141;22;20051;-90
2022/05/03 07:56:19;;;;;;;6.13;2.83;;;10.90;99.90;;;;;;6196119;23;20027;-89
2022/05/03 07:58:46;;;;;;;8.50;3.80;;;10.90;99.90;;;;;;6220083;23;20012;-90
2022/05/03 08:01:13;;;;;;;14.55;3.72;;;11.00;99.90;;;;;;6220530;23;20030;-90
2022/05/03 08:03:40;;;;;;;6.75;2.85;;;10.80;99.90;;;;;;6219388;22;20032;-90
2022/05/03 08:06:11;;;;;;;6.03;2.85;;;10.90;99.90;;;;;;6194137;23;20474;-90
2022/05/03 08:08:37;;;;;;;11.30;3.92;;;10.90;99.90;;;;;;6194963;23;20107;-90
2022/05/03 08:11:04;;;;;;;9.52;2.80;;;10.90;99.90;;;;;;6219983;23;20012;-90
2022/05/03 08:13:31;;;;;;;11.13;3.30;;;11.00;99.90;;;;;;6220092;23;20036;-90
2022/05/03 08:15:58;;;;;;;18.20;3.28;;;11.00;99.90;;;;;;6219717;23;20066;-89
2022/05/03 08:18:25;;;;;;;13.38;3.50;;;11.00;99.90;;;;;;6194595;23;20459;-90
2022/05/03 08:20:53;;;;;;;10.40;2.70;;;10.90;99.90;;;;;;6246408;23;20012;-90
2022/05/03 08:23:20;;;;;;;10.60;2.90;;;11.00;99.90;;;;;;6219753;23;20051;-90
2022/05/03 08:25:48;;;;;;;6.47;3.03;;;11.00;99.90;;;;;;6219659;23;20020;-91
2022/05/03 08:28:15;;;;;;;11.38;3.00;;;11.10;99.90;;;;;;6219771;23;20020;-90
2022/05/03 08:30:42;;;;;;;7.25;3.25;;;11.00;99.90;;;;;;6195622;23;20072;-90
2022/05/03 08:33:09;;;;;;;5.72;2.38;;;11.20;99.90;;;;;;6220760;23;20092;-89
2022/05/03 08:35:38;;;;;;;8.95;3.10;;;11.20;99.90;;;;;;6246485;22;20008;-90
2022/05/03 08:43:40;;;;;;;5.43;2.90;;;11.30;99.90;;;;;;6246824;22;20513;-90
2022/05/03 08:46:08;;;;;;;15.13;3.33;;;11.30;99.90;;;;;;6220071;23;20024;-87
2022/05/03 08:48:44;;;;;;;9.55;2.90;;;11.40;99.90;;;;;;6220706;23;20082;-91
2022/05/03 08:51:21;;;;;;;11.35;2.67;;;11.40;99.90;;;;;;6196569;23;20082;-90
2022/05/03 08:53:49;;;;;;;10.18;2.70;;;11.40;99.90;;;;;;6246220;22;20027;-90
2022/05/03 08:56:18;;;;;;;7.72;2.85;;;11.20;99.90;;;;;;6221071;23;20039;-90
2022/05/03 08:58:47;;;;;;;13.25;3.22;;;11.30;99.90;;;;;;6246880;23;20078;-90
2022/05/03 09:01:17;;;;;;;11.63;3.30;;;11.20;99.90;;;;;;6198005;23;20017;-90
2022/05/03 09:03:44;;;;;;;10.95;3.10;;;11.20;99.90;;;;;;6194746;22;20107;-89
2022/05/03 09:06:11;;;;;;;7.70;3.08;;;11.20;99.90;;;;;;6221121;23;20009;-91
2022/05/03 09:08:39;;;;;;;23.05;3.60;;;11.30;99.90;;;;;;6247169;23;20043;-90
2022/05/03 09:11:14;;;;;;;9.68;2.70;;;11.20;99.90;;;;;;6195452;23;20444;-90
2022/05/03 09:13:42;;;;;;;10.18;2.88;;;11.20;99.90;;;;;;6220543;22;20012;-90
2022/05/03 09:16:19;;;;;;;8.25;4.25;;;11.30;99.90;;;;;;6197014;23;20039;-90
2022/05/03 09:18:47;;;;;;;7.30;2.72;;;11.20;99.90;;;;;;6196988;23;20050;-90
2022/05/03 09:24:12;;;;;;;10.88;2.70;;;11.20;99.90;;;;;;6248588;22;20050;-91
2022/05/03 09:26:39;;;;;;;10.57;3.25;;;11.30;99.90;;;;;;6221990;23;20084;-90
2022/05/03 09:29:12;;;;;;;10.43;2.50;;;11.20;99.90;;;;;;6221042;23;20051;-92
2022/05/03 09:31:47;;;;;;;6.18;2.40;;;11.30;99.90;;;;;;6196162;23;20355;-92
2022/05/03 09:34:25;;;;;;;10.18;2.35;;;11.30;99.90;;;;;;6196820;23;20320;-92
2022/05/03 09:36:58;;;;;;;10.85;3.20;;;11.40;99.90;;;;;;6196622;23;20357;-91
2022/05/03 09:39:38;;;;;;;6.00;2.83;;;11.40;99.90;;;;;;6198058;23;20046;-92
2022/05/03 09:42:34;;;;;;;13.63;2.85;;;11.50;99.90;;;;;;6221209;23;20024;-91
2022/05/03 09:45:02;;;;;;;8.30;2.75;;;11.20;99.90;;;;;;6205345;23;20024;-91
2022/05/03 09:47:51;;;;;;;15.07;4.10;;;11.30;99.90;;;;;;6222305;23;20316;-92
2022/05/03 09:50:48;;;;;;;12.68;2.70;;;11.40;99.90;;;;;;6196440;23;20020;-91
2022/05/03 09:53:18;;;;;;;8.23;2.70;;;11.40;99.90;;;;;;6192613;23;20024;-91
2022/05/03 09:55:49;;;;;;;9.25;2.95;;;11.30;99.90;;;;;;6222449;23;20019;-91
2022/05/03 09:58:18;;;;;;;11.13;3.28;;;11.30;99.90;;;;;;6221272;23;20344;-91
2022/05/03 10:00:48;;;;;;;11.43;2.75;;;11.40;99.90;;;;;;6248425;23;20028;-91
2022/05/03 10:03:15;;;;;;;13.38;2.67;;;11.40;99.90;;;;;;6196525;23;20347;-92
2022/05/03 10:05:45;;;;;;;10.88;2.83;;;11.40;99.90;;;;;;6221900;23;20035;-92
2022/05/03 10:08:16;;;;;;;9.15;3.03;;;11.50;99.90;;;;;;6221494;23;20023;-91
2022/05/03 10:10:56;;;;;;;12.73;3.05;;;11.60;99.90;;;;;;6197373;23;20027;-91
2022/05/03 10:13:24;;;;;;;9.90;2.60;;;11.60;99.90;;;;;;6196278;23;20063;-91
2022/05/03 10:21:35;;;;;;;11.65;2.17;;;11.40;99.90;;;;;;6222023;23;20024;-91
2022/05/03 10:24:06;;;;;;;12.07;2.95;;;11.30;99.90;;;;;;6195857;22;20020;-91
2022/05/03 10:26:52;;;;;;;6.95;2.50;;;11.30;99.90;;;;;;6220935;23;20355;-91
2022/05/03 10:29:24;;;;;;;9.77;2.60;;;11.50;99.90;;;;;;6196400;23;20074;-91
2022/05/03 10:32:05;;;;;;;14.07;2.03;;;11.50;99.90;;;;;;6196393;23;20074;-92
2022/05/03 10:34:59;;;;;;;10.32;2.17;;;11.50;99.90;;;;;;6195678;23;20339;-91
2022/05/03 10:37:28;;;;;;;7.53;3.10;;;11.30;99.90;;;;;;6220705;23;20028;-92
2022/05/03 10:39:57;;;;;;;4.75;1.65;;;11.70;99.90;;;;;;6220658;23;20471;-92
2022/05/03 10:42:28;;;;;;;11.70;2.40;;;11.50;99.90;;;;;;6221209;23;20439;-92
2022/05/03 10:45:26;;;;;;;6.95;2.35;;;11.60;99.90;;;;;;6196134;23;20020;-91
2022/05/03 10:47:54;;;;;;;7.28;3.05;;;11.60;99.90;;;;;;6215852;23;20047;-92
2022/05/03 10:50:36;;;;;;;7.38;2.00;;;11.70;99.90;;;;;;6221099;23;20043;-91
2022/05/03 10:53:06;;;;;;;6.35;2.15;;;12.00;99.90;;;;;;6220866;23;20569;-91
2022/05/03 10:55:38;;;;;;;12.82;2.20;;;12.00;99.90;;;;;;6221614;23;20024;-92
2022/05/03 10:58:28;;;;;;;7.03;2.60;;;12.00;99.90;;;;;;6221285;23;20024;-92
2022/05/03 11:01:20;;;;;;;5.25;2.05;;;11.80;99.90;;;;;;6221133;23;20024;-91
2022/05/03 11:03:59;;;;;;;10.48;2.58;;;11.60;99.90;;;;;;6220891;22;20024;-91
2022/05/03 11:06:26;;;;;;;10.05;2.30;;;11.80;99.90;;;;;;6247476;23;20024;-91
2022/05/03 11:11:36;;;;;;;5.97;2.53;;;11.80;99.90;;;;;;6220396;23;20074;-90
2022/05/03 11:14:24;;;;;;;9.93;2.67;;;12.10;99.90;;;;;;6219673;22;20320;-91
2022/05/03 11:17:07;;;;;;;6.65;2.33;;;12.20;99.90;;;;;;6196180;23;20082;-91
2022/05/03 11:19:55;;;;;;;10.45;1.92;;;12.20;99.90;;;;;;6246876;23;20439;-92
2022/05/03 11:22:31;;;;;;;9.18;3.03;;;12.40;99.90;;;;;;6195071;23;20325;-91
2022/05/03 11:25:05;;;;;;;9.40;3.25;;;12.10;99.90;;;;;;6195389;23;20116;-92
2022/05/03 11:27:32;;;;;;;11.35;2.65;;;12.00;99.90;;;;;;6219706;23;20497;-92
2022/05/03 11:30:04;;;;;;;9.82;2.35;;;12.20;99.90;;;;;;6246625;23;20036;-92
2022/05/03 11:32:39;;;;;;;10.80;2.47;;;12.30;99.90;;;;;;6219882;23;20324;-91
2022/05/03 11:35:16;;;;;;;19.25;2.65;;;12.40;99.90;;;;;;6219992;23;20040;-92
2022/05/03 11:37:49;;;;;;;8.13;2.38;;;12.50;99.90;;;;;;6246865;23;20020;-92
2022/05/03 11:40:18;;;;;;;;;;;12.50;99.90;;;;;;6220250;23;20024;-91
2022/05/03 11:42:46;;;;;;;8.45;2.05;;;12.60;99.90;;;;;;6219840;23;19915;-91
2022/05/03 11:45:14;;;;;;;14.02;3.30;;;12.30;99.90;;;;;;6194546;23;20019;-91
2022/05/03 11:47:49;;;;;;;9.85;2.65;;;12.50;99.90;;;;;;6246373;23;20012;-91
2022/05/03 11:56:08;;;;;;;6.22;2.53;;;12.50;99.90;;;;;;6198660;23;20023;-92
2022/05/03 11:58:37;;;;;;;8.25;2.75;;;12.50;99.80;;;;;;6219993;23;20024;-92
2022/05/03 12:01:15;;;;;;;6.93;2.60;;;12.50;99.90;;;;;;6220715;23;20347;-91
2022/05/03 12:03:56;;;;;;;8.77;3.03;;;12.50;99.90;;;;;;6219276;22;20070;-92
2022/05/03 12:06:23;;;;;;;8.43;2.03;;;12.40;99.90;;;;;;6220217;23;20023;-92
2022/05/03 12:08:52;;;;;;;5.88;2.15;;;12.70;99.90;;;;;;6194792;23;20023;-91
2022/05/03 12:11:21;;;;;;;6.90;2.80;;;13.10;99.90;;;;;;6220031;23;20427;-89
2022/05/03 12:13:48;;;;;;;11.15;2.60;;;13.00;99.90;;;;;;6219591;22;20035;-91
2022/05/03 12:16:21;;;;;;;10.18;2.72;;;13.00;96.60;;;;;;6194584;23;20474;-91
2022/05/03 12:18:48;;;;;;;12.90;1.90;;;12.70;95.70;;;;;;6194845;23;20052;-91
2022/05/03 12:21:21;;;;;;;12.18;2.40;;;13.00;99.90;;;;;;6219562;23;20099;-91
2022/05/03 12:23:57;;;;;;;9.50;2.97;;;12.60;90.10;;;;;;6219284;22;20431;-91
2022/05/03 12:26:27;;;;;;;6.95;1.95;;;13.00;99.90;;;;;;6219617;23;20024;-91
2022/05/03 12:28:56;;;;;;;10.20;2.92;;;13.00;86.10;;;;;;6220094;23;20455;-91
2022/05/03 12:31:30;;;;;;;8.82;2.50;;;12.80;51.00;;;;;;6195453;23;20416;-91
2022/05/03 12:33:58;;;;;;;8.88;2.38;;;12.70;83.60;;;;;;6195447;22;20087;-92
2022/05/03 12:36:32;;;;;;;;;;;13.30;86.50;;;;;;6196051;23;20020;-91
2022/05/03 12:39:20;;;;;;;9.40;2.22;;;13.00;37.60;;;;;;6219646;23;19965;-92
2022/05/03 12:42:01;;;;;;;9.73;2.25;;;13.10;18.50;;;;;;6219508;23;20026;-91
2022/05/03 12:44:30;;;;;;;10.45;2.15;;;13.20;2.80;;;;;;6194596;23;20020;-92
2022/05/03 12:47:08;;;;;;;10.05;2.40;;;13.30;20.10;;;;;;6171008;23;20090;-91
2022/05/03 12:49:37;;;;;;;5.80;2.00;;;12.70;1.00;;;;;;6222469;23;20332;-91
2022/05/03 12:52:05;;;;;;;9.38;1.98;;;12.80;17.80;;;;;;6198805;23;20043;-91
2022/05/03 12:54:33;;;;;;;7.82;1.80;;;12.90;5.60;;;;;;6221652;23;20020;-90
2022/05/03 12:59:49;;;;;;;8.70;2.20;;;13.20;1.00;;;;;;6248141;23;20091;-91
2022/05/03 13:02:17;;;;;;;6.70;1.67;;;13.40;4.20;;;;;;6221456;23;20024;-91
2022/05/03 13:04:45;;;;;;;8.45;2.00;;;13.50;1.00;;;;;;6196225;23;20024;-90
2022/05/03 13:07:12;;;;;;;8.00;1.85;;;13.60;1.00;;;;;;6196500;23;20107;-91
2022/05/03 13:09:39;;;;;;;7.60;1.80;;;13.70;1.00;;;;;;6222024;23;20017;-90
2022/05/03 13:12:07;;;;;;;8.13;2.88;;;13.40;1.00;;;;;;6221765;23;20344;-90
2022/05/03 13:14:35;;;;;;;6.78;2.08;;;13.80;1.00;;;;;;6171718;23;20051;-91
2022/05/03 13:17:03;;;;;;;7.18;2.20;;;14.00;1.00;;;;;;6195916;23;20490;-90
2022/05/03 13:19:30;;;;;;;4.80;1.52;;;13.80;1.00;;;;;;6248224;23;20062;-91
2022/05/03 13:21:57;;;;;;;8.10;1.98;;;13.80;1.00;;;;;;6196713;23;20028;-91
2022/05/03 13:24:26;;;;;;;6.68;2.00;;;14.30;1.00;;;;;;6220898;23;20046;-89
2022/05/03 13:26:54;;;;;;;8.52;1.92;;;14.10;1.00;;;;;;6196461;23;20536;-90
2022/05/03 13:29:21;;;;;;;9.00;1.80;;;14.40;1.00;;;;;;6221760;23;20040;-91
2022/05/03 13:31:49;;;;;;;5.90;1.58;;;14.60;1.00;;;;;;6220824;23;20020;-90
2022/05/03 13:34:16;;;;;;;4.53;1.90;;;14.20;1.00;;;;;;6221217;23;20047;-89
2022/05/03 13:42:16;;;;;;;9.65;1.52;;;14.70;1.00;;;;;;6220795;23;20444;-91
2022/05/03 13:44:43;;;;;;;1.67;1.10;;;14.50;1.00;;;;;;6221215;23;20020;-89
2022/05/03 13:47:12;;;;;;;7.43;1.98;;;14.80;1.00;;;;;;6196366;23;20398;-90
2022/05/03 13:49:42;;;;;;;6.88;2.58;;;14.70;1.00;;;;;;6221203;23;20510;-90
2022/05/03 13:52:10;;;;;;;2.92;1.25;;;14.50;1.00;;;;;;6248306;23;20091;-82
2022/05/03 13:54:37;;;;;;;3.03;1.95;;;14.40;1.00;;;;;;6220255;23;20520;-84
2022/05/03 14:07:33;;;;;;;7.55;1.63;;;15.70;1.00;;;;;;6252940;22;19930;-89
2022/05/03 14:11:08;;;;;;;6.35;1.52;;;15.40;1.00;;;;;;6278109;22;20035;-91